Accueil
METAR-TAF:

METAR-TAF

Aéroports :

Aéroport de Saint-Étienne-Loire

Saint-Etienne, France

latitude: 45-32N, longitude: 004-18E, altitude: 404 m

Observation

Le bulletin a été fait il y a 28 minutes, à 12:30 UTC
Vent 11 kt de sud/sud-ouest, variant entre sud et ouest
Température 14°C
Humidité 55%
Pression 1019 hPa
Visibilité 10 km ou plus
pas de nuages en-dessous de 1500 mètres et pas de cumulonimbus.

METAR: LFMH 261230Z AUTO 20011KT 180V260 CAVOK 14/05 Q1019 NOSIG

Heure: 13:58 (12:58 UTC)

Prévision

Le bulletin a été fait il y a 1 heure et 58 minutes, à 11:00 UTC
Prévision valable du 26 à 12 UTC au 27 à 12 UTC
Vent 10 kt de sud/sud-est
Visibilité 10 km ou plus
Quelques nuages à une hauteur de 4000 ft

TAF: LFMH 261100Z 2612/2712 16010KT 9999 FEW040

Observations et prévisions météorologiques de plus de 4000 aéroports (messages METAR et TAF).

Les stations disponibles sont représentées par des disques jaunes et rouges sur la carte.

Passer la souris dessus pour voir le nom de la station.

Cliquer dessus pour voir les observations et prévisions météorologiques.

Pour changer de carte: cliquez sur les boutons verts avec une croix noire pour zoomer, sur le bouton vert avec un tiret pour effectuer un zoom arrière, ou sur les flèches vertes pour les cartes adjacentes.


METAR-TAF: